sensor_id;sensor_type;location;lat;lon;timestamp;P1;durP1;ratioP1;P2;durP2;ratioP2
46589;SDS011;32313;48.722;9.362;2023-09-19T00:01:32;2.77;;;2.00;;
46589;SDS011;32313;48.722;9.362;2023-09-19T00:03:58;2.27;;;2.00;;
46589;SDS011;32313;48.722;9.362;2023-09-19T00:06:25;2.40;;;2.20;;
46589;SDS011;32313;48.722;9.362;2023-09-19T00:08:56;2.53;;;2.10;;
46589;SDS011;32313;48.722;9.362;2023-09-19T00:11:24;2.10;;;2.00;;
46589;SDS011;32313;48.722;9.362;2023-09-19T00:13:51;2.20;;;2.00;;
46589;SDS011;32313;48.722;9.362;2023-09-19T00:16:16;3.10;;;2.13;;
46589;SDS011;32313;48.722;9.362;2023-09-19T00:18:44;2.87;;;2.20;;
46589;SDS011;32313;48.722;9.362;2023-09-19T00:21:10;3.00;;;2.20;;
46589;SDS011;32313;48.722;9.362;2023-09-19T00:23:36;3.40;;;2.10;;
46589;SDS011;32313;48.722;9.362;2023-09-19T00:26:02;2.00;;;1.80;;
46589;SDS011;32313;48.722;9.362;2023-09-19T00:28:29;2.80;;;2.10;;
46589;SDS011;32313;48.722;9.362;2023-09-19T00:31:00;2.87;;;2.07;;
46589;SDS011;32313;48.722;9.362;2023-09-19T00:33:27;2.40;;;2.20;;
46589;SDS011;32313;48.722;9.362;2023-09-19T00:35:54;2.50;;;2.07;;
46589;SDS011;32313;48.722;9.362;2023-09-19T00:38:22;2.67;;;2.13;;
46589;SDS011;32313;48.722;9.362;2023-09-19T00:40:52;2.90;;;2.20;;
46589;SDS011;32313;48.722;9.362;2023-09-19T00:43:18;2.10;;;1.90;;
46589;SDS011;32313;48.722;9.362;2023-09-19T00:45:46;2.37;;;1.90;;
46589;SDS011;32313;48.722;9.362;2023-09-19T00:48:13;1.83;;;1.73;;
46589;SDS011;32313;48.722;9.362;2023-09-19T00:50:41;4.60;;;2.00;;
46589;SDS011;32313;48.722;9.362;2023-09-19T00:53:08;2.00;;;1.80;;
46589;SDS011;32313;48.722;9.362;2023-09-19T00:55:36;2.20;;;2.00;;
46589;SDS011;32313;48.722;9.362;2023-09-19T00:58:02;2.10;;;2.00;;
46589;SDS011;32313;48.722;9.362;2023-09-19T01:00:31;3.07;;;1.93;;
46589;SDS011;32313;48.722;9.362;2023-09-19T01:02:59;2.90;;;1.97;;
46589;SDS011;32313;48.722;9.362;2023-09-19T01:05:29;2.40;;;2.20;;
46589;SDS011;32313;48.722;9.362;2023-09-19T01:07:57;2.20;;;2.00;;
46589;SDS011;32313;48.722;9.362;2023-09-19T01:10:23;4.00;;;2.07;;
46589;SDS011;32313;48.722;9.362;2023-09-19T01:13:11;2.50;;;1.90;;
46589;SDS011;32313;48.722;9.362;2023-09-19T01:24:07;2.73;;;2.20;;
46589;SDS011;32313;48.722;9.362;2023-09-19T01:29:41;1.80;;;1.70;;
46589;SDS011;32313;48.722;9.362;2023-09-19T01:32:10;3.73;;;1.80;;
46589;SDS011;32313;48.722;9.362;2023-09-19T01:34:55;1.97;;;1.83;;
46589;SDS011;32313;48.722;9.362;2023-09-19T01:37:23;1.87;;;1.77;;
46589;SDS011;32313;48.722;9.362;2023-09-19T01:40:09;2.00;;;1.90;;
46589;SDS011;32313;48.722;9.362;2023-09-19T01:42:55;2.23;;;1.70;;
46589;SDS011;32313;48.722;9.362;2023-09-19T01:47:56;2.10;;;1.90;;
46589;SDS011;32313;48.722;9.362;2023-09-19T01:50:44;2.00;;;1.90;;
46589;SDS011;32313;48.722;9.362;2023-09-19T01:53:25;2.17;;;1.70;;
46589;SDS011;32313;48.722;9.362;2023-09-19T01:56:16;2.00;;;1.90;;
46589;SDS011;32313;48.722;9.362;2023-09-19T01:58:48;1.80;;;1.70;;
46589;SDS011;32313;48.722;9.362;2023-09-19T02:01:20;2.00;;;1.90;;
46589;SDS011;32313;48.722;9.362;2023-09-19T02:03:49;2.23;;;1.80;;
46589;SDS011;32313;48.722;9.362;2023-09-19T02:06:16;2.20;;;2.00;;
46589;SDS011;32313;48.722;9.362;2023-09-19T02:08:43;2.30;;;1.60;;
46589;SDS011;32313;48.722;9.362;2023-09-19T02:11:10;2.00;;;1.90;;
46589;SDS011;32313;48.722;9.362;2023-09-19T02:13:36;2.10;;;1.73;;
46589;SDS011;32313;48.722;9.362;2023-09-19T02:16:03;2.70;;;1.77;;
46589;SDS011;32313;48.722;9.362;2023-09-19T02:18:29;1.93;;;1.70;;
46589;SDS011;32313;48.722;9.362;2023-09-19T02:20:56;2.43;;;1.60;;
46589;SDS011;32313;48.722;9.362;2023-09-19T02:23:24;1.87;;;1.70;;
46589;SDS011;32313;48.722;9.362;2023-09-19T02:25:53;1.90;;;1.80;;
46589;SDS011;32313;48.722;9.362;2023-09-19T02:28:20;4.43;;;1.90;;
46589;SDS011;32313;48.722;9.362;2023-09-19T02:30:48;2.30;;;1.80;;
46589;SDS011;32313;48.722;9.362;2023-09-19T02:33:15;2.57;;;1.90;;
46589;SDS011;32313;48.722;9.362;2023-09-19T02:35:42;2.20;;;1.90;;
46589;SDS011;32313;48.722;9.362;2023-09-19T02:38:08;2.00;;;1.80;;
46589;SDS011;32313;48.722;9.362;2023-09-19T02:40:36;2.40;;;1.90;;
46589;SDS011;32313;48.722;9.362;2023-09-19T02:43:02;2.17;;;1.97;;
46589;SDS011;32313;48.722;9.362;2023-09-19T02:45:28;2.10;;;1.87;;
46589;SDS011;32313;48.722;9.362;2023-09-19T02:47:56;1.77;;;1.67;;
46589;SDS011;32313;48.722;9.362;2023-09-19T02:50:22;2.77;;;2.00;;
46589;SDS011;32313;48.722;9.362;2023-09-19T02:52:48;4.10;;;2.10;;
46589;SDS011;32313;48.722;9.362;2023-09-19T02:55:18;2.70;;;2.00;;
46589;SDS011;32313;48.722;9.362;2023-09-19T02:57:48;4.13;;;2.00;;
46589;SDS011;32313;48.722;9.362;2023-09-19T03:00:16;2.10;;;1.90;;
46589;SDS011;32313;48.722;9.362;2023-09-19T03:02:46;1.90;;;1.80;;
46589;SDS011;32313;48.722;9.362;2023-09-19T03:05:16;3.23;;;2.10;;
46589;SDS011;32313;48.722;9.362;2023-09-19T03:07:43;2.30;;;2.10;;
46589;SDS011;32313;48.722;9.362;2023-09-19T03:10:10;2.00;;;1.87;;
46589;SDS011;32313;48.722;9.362;2023-09-19T03:12:36;1.83;;;1.73;;
46589;SDS011;32313;48.722;9.362;2023-09-19T03:15:03;2.60;;;2.00;;
46589;SDS011;32313;48.722;9.362;2023-09-19T03:17:30;2.40;;;1.97;;
46589;SDS011;32313;48.722;9.362;2023-09-19T03:19:58;3.33;;;2.67;;
46589;SDS011;32313;48.722;9.362;2023-09-19T03:22:24;2.20;;;1.90;;
46589;SDS011;32313;48.722;9.362;2023-09-19T03:24:51;2.33;;;2.13;;
46589;SDS011;32313;48.722;9.362;2023-09-19T03:27:18;2.40;;;2.10;;
46589;SDS011;32313;48.722;9.362;2023-09-19T03:29:44;2.73;;;2.47;;
46589;SDS011;32313;48.722;9.362;2023-09-19T03:32:09;2.20;;;2.10;;
46589;SDS011;32313;48.722;9.362;2023-09-19T03:34:36;2.50;;;2.30;;
46589;SDS011;32313;48.722;9.362;2023-09-19T03:37:07;2.10;;;1.90;;
46589;SDS011;32313;48.722;9.362;2023-09-19T03:39:34;2.40;;;1.93;;
46589;SDS011;32313;48.722;9.362;2023-09-19T03:42:00;2.33;;;2.10;;
46589;SDS011;32313;48.722;9.362;2023-09-19T03:44:26;1.80;;;1.70;;
46589;SDS011;32313;48.722;9.362;2023-09-19T03:46:52;3.33;;;2.30;;
46589;SDS011;32313;48.722;9.362;2023-09-19T03:49:18;2.67;;;2.00;;
46589;SDS011;32313;48.722;9.362;2023-09-19T03:51:44;5.00;;;2.50;;
46589;SDS011;32313;48.722;9.362;2023-09-19T03:54:10;2.10;;;2.00;;
46589;SDS011;32313;48.722;9.362;2023-09-19T03:56:35;2.37;;;1.97;;
46589;SDS011;32313;48.722;9.362;2023-09-19T03:59:01;2.23;;;2.10;;
46589;SDS011;32313;48.722;9.362;2023-09-19T04:01:28;3.23;;;2.20;;
46589;SDS011;32313;48.722;9.362;2023-09-19T04:03:55;4.03;;;2.20;;
46589;SDS011;32313;48.722;9.362;2023-09-19T04:06:21;3.60;;;2.20;;
46589;SDS011;32313;48.722;9.362;2023-09-19T04:08:48;2.10;;;2.00;;
46589;SDS011;32313;48.722;9.362;2023-09-19T04:11:14;3.20;;;2.10;;
46589;SDS011;32313;48.722;9.362;2023-09-19T04:13:40;3.57;;;2.23;;
46589;SDS011;32313;48.722;9.362;2023-09-19T04:16:05;4.40;;;2.43;;
46589;SDS011;32313;48.722;9.362;2023-09-19T04:18:35;1.93;;;1.80;;
46589;SDS011;32313;48.722;9.362;2023-09-19T04:21:03;3.00;;;2.20;;
46589;SDS011;32313;48.722;9.362;2023-09-19T04:23:31;2.43;;;2.23;;
46589;SDS011;32313;48.722;9.362;2023-09-19T04:25:57;2.17;;;2.03;;
46589;SDS011;32313;48.722;9.362;2023-09-19T04:28:23;3.27;;;2.50;;
46589;SDS011;32313;48.722;9.362;2023-09-19T04:30:49;2.73;;;2.23;;
46589;SDS011;32313;48.722;9.362;2023-09-19T04:33:15;2.73;;;2.20;;
46589;SDS011;32313;48.722;9.362;2023-09-19T04:35:41;3.53;;;2.37;;
46589;SDS011;32313;48.722;9.362;2023-09-19T04:38:07;2.37;;;2.17;;
46589;SDS011;32313;48.722;9.362;2023-09-19T04:40:33;2.67;;;2.20;;
46589;SDS011;32313;48.722;9.362;2023-09-19T04:42:59;2.57;;;2.37;;
46589;SDS011;32313;48.722;9.362;2023-09-19T04:45:26;2.40;;;2.20;;
46589;SDS011;32313;48.722;9.362;2023-09-19T04:47:52;2.43;;;2.33;;
46589;SDS011;32313;48.722;9.362;2023-09-19T04:50:18;2.53;;;2.33;;
46589;SDS011;32313;48.722;9.362;2023-09-19T04:52:48;2.67;;;2.43;;
46589;SDS011;32313;48.722;9.362;2023-09-19T04:55:16;3.07;;;2.33;;
46589;SDS011;32313;48.722;9.362;2023-09-19T04:57:44;2.80;;;2.50;;
46589;SDS011;32313;48.722;9.362;2023-09-19T05:00:14;3.23;;;2.50;;
46589;SDS011;32313;48.722;9.362;2023-09-19T05:02:42;2.50;;;2.30;;
46589;SDS011;32313;48.722;9.362;2023-09-19T05:05:08;3.20;;;2.30;;
46589;SDS011;32313;48.722;9.362;2023-09-19T05:07:42;3.97;;;2.30;;
46589;SDS011;32313;48.722;9.362;2023-09-19T05:10:09;2.43;;;2.33;;
46589;SDS011;32313;48.722;9.362;2023-09-19T05:12:38;2.77;;;2.40;;
46589;SDS011;32313;48.722;9.362;2023-09-19T05:15:06;3.00;;;2.30;;
46589;SDS011;32313;48.722;9.362;2023-09-19T05:17:32;2.50;;;2.30;;
46589;SDS011;32313;48.722;9.362;2023-09-19T05:20:02;3.00;;;2.13;;
46589;SDS011;32313;48.722;9.362;2023-09-19T05:23:12;3.33;;;2.50;;
46589;SDS011;32313;48.722;9.362;2023-09-19T05:25:39;2.50;;;2.30;;
46589;SDS011;32313;48.722;9.362;2023-09-19T05:28:08;2.50;;;2.30;;
46589;SDS011;32313;48.722;9.362;2023-09-19T05:30:37;2.50;;;2.30;;
46589;SDS011;32313;48.722;9.362;2023-09-19T05:33:04;4.40;;;2.63;;
46589;SDS011;32313;48.722;9.362;2023-09-19T05:35:30;2.93;;;2.70;;
46589;SDS011;32313;48.722;9.362;2023-09-19T05:37:56;2.57;;;2.37;;
46589;SDS011;32313;48.722;9.362;2023-09-19T05:40:23;2.90;;;2.60;;
46589;SDS011;32313;48.722;9.362;2023-09-19T05:42:49;5.73;;;3.30;;
46589;SDS011;32313;48.722;9.362;2023-09-19T05:45:18;3.10;;;2.80;;
46589;SDS011;32313;48.722;9.362;2023-09-19T05:47:50;4.07;;;2.70;;
46589;SDS011;32313;48.722;9.362;2023-09-19T05:50:21;5.53;;;2.80;;
46589;SDS011;32313;48.722;9.362;2023-09-19T05:52:53;5.03;;;2.70;;
46589;SDS011;32313;48.722;9.362;2023-09-19T05:55:21;5.40;;;3.20;;
46589;SDS011;32313;48.722;9.362;2023-09-19T05:57:52;3.27;;;2.80;;
46589;SDS011;32313;48.722;9.362;2023-09-19T06:00:19;4.87;;;3.13;;
46589;SDS011;32313;48.722;9.362;2023-09-19T06:02:49;2.70;;;2.50;;
46589;SDS011;32313;48.722;9.362;2023-09-19T06:05:16;2.83;;;2.63;;
46589;SDS011;32313;48.722;9.362;2023-09-19T06:07:41;3.33;;;3.07;;
46589;SDS011;32313;48.722;9.362;2023-09-19T06:10:07;3.10;;;2.80;;
46589;SDS011;32313;48.722;9.362;2023-09-19T06:12:41;3.37;;;2.87;;
46589;SDS011;32313;48.722;9.362;2023-09-19T06:15:11;3.50;;;3.20;;
46589;SDS011;32313;48.722;9.362;2023-09-19T06:17:47;4.23;;;3.00;;
46589;SDS011;32313;48.722;9.362;2023-09-19T06:20:14;3.10;;;2.80;;
46589;SDS011;32313;48.722;9.362;2023-09-19T06:22:42;3.33;;;3.03;;
46589;SDS011;32313;48.722;9.362;2023-09-19T06:25:12;3.90;;;3.30;;
46589;SDS011;32313;48.722;9.362;2023-09-19T06:27:53;3.70;;;2.83;;
46589;SDS011;32313;48.722;9.362;2023-09-19T06:30:23;4.00;;;3.07;;
46589;SDS011;32313;48.722;9.362;2023-09-19T06:32:49;2.97;;;2.77;;
46589;SDS011;32313;48.722;9.362;2023-09-19T06:35:21;3.60;;;2.90;;
46589;SDS011;32313;48.722;9.362;2023-09-19T06:37:47;3.40;;;3.10;;
46589;SDS011;32313;48.722;9.362;2023-09-19T06:40:13;3.40;;;2.80;;
46589;SDS011;32313;48.722;9.362;2023-09-19T06:42:51;3.73;;;3.00;;
46589;SDS011;32313;48.722;9.362;2023-09-19T06:45:21;3.77;;;3.03;;
46589;SDS011;32313;48.722;9.362;2023-09-19T06:47:47;3.73;;;3.43;;
46589;SDS011;32313;48.722;9.362;2023-09-19T06:50:15;3.70;;;3.20;;
46589;SDS011;32313;48.722;9.362;2023-09-19T06:52:44;3.53;;;3.10;;
46589;SDS011;32313;48.722;9.362;2023-09-19T06:55:11;3.50;;;3.00;;
46589;SDS011;32313;48.722;9.362;2023-09-19T06:57:41;5.07;;;3.40;;
46589;SDS011;32313;48.722;9.362;2023-09-19T07:00:08;4.27;;;3.40;;
46589;SDS011;32313;48.722;9.362;2023-09-19T07:02:44;6.80;;;3.80;;
46589;SDS011;32313;48.722;9.362;2023-09-19T07:05:11;3.87;;;3.37;;
46589;SDS011;32313;48.722;9.362;2023-09-19T07:07:37;6.10;;;3.33;;
46589;SDS011;32313;48.722;9.362;2023-09-19T07:10:03;3.70;;;3.10;;
46589;SDS011;32313;48.722;9.362;2023-09-19T07:12:35;4.37;;;3.30;;
46589;SDS011;32313;48.722;9.362;2023-09-19T07:15:01;4.63;;;3.40;;
46589;SDS011;32313;48.722;9.362;2023-09-19T07:17:27;5.13;;;3.50;;
46589;SDS011;32313;48.722;9.362;2023-09-19T07:19:54;3.57;;;2.60;;
46589;SDS011;32313;48.722;9.362;2023-09-19T07:22:20;2.80;;;2.47;;
46589;SDS011;32313;48.722;9.362;2023-09-19T07:24:46;2.67;;;2.43;;
46589;SDS011;32313;48.722;9.362;2023-09-19T07:27:14;3.47;;;2.83;;
46589;SDS011;32313;48.722;9.362;2023-09-19T07:29:39;5.17;;;2.60;;
46589;SDS011;32313;48.722;9.362;2023-09-19T07:32:05;3.17;;;2.40;;
46589;SDS011;32313;48.722;9.362;2023-09-19T07:34:32;3.03;;;2.40;;
46589;SDS011;32313;48.722;9.362;2023-09-19T07:36:57;5.30;;;3.83;;
46589;SDS011;32313;48.722;9.362;2023-09-19T07:39:23;5.13;;;2.77;;
46589;SDS011;32313;48.722;9.362;2023-09-19T07:41:49;2.87;;;2.47;;
46589;SDS011;32313;48.722;9.362;2023-09-19T07:44:14;3.10;;;2.60;;
46589;SDS011;32313;48.722;9.362;2023-09-19T07:46:40;3.83;;;2.57;;
46589;SDS011;32313;48.722;9.362;2023-09-19T07:49:06;3.47;;;2.43;;
46589;SDS011;32313;48.722;9.362;2023-09-19T07:51:31;3.90;;;2.73;;
46589;SDS011;32313;48.722;9.362;2023-09-19T07:53:58;2.70;;;2.50;;
46589;SDS011;32313;48.722;9.362;2023-09-19T07:56:23;3.67;;;2.53;;
46589;SDS011;32313;48.722;9.362;2023-09-19T07:58:51;2.67;;;2.40;;
46589;SDS011;32313;48.722;9.362;2023-09-19T08:01:17;2.50;;;2.30;;
46589;SDS011;32313;48.722;9.362;2023-09-19T08:03:42;2.97;;;2.00;;
46589;SDS011;32313;48.722;9.362;2023-09-19T08:06:09;3.67;;;2.13;;
46589;SDS011;32313;48.722;9.362;2023-09-19T08:08:36;2.50;;;2.03;;
46589;SDS011;32313;48.722;9.362;2023-09-19T08:11:02;4.03;;;1.80;;
46589;SDS011;32313;48.722;9.362;2023-09-19T08:13:40;1.87;;;1.70;;
46589;SDS011;32313;48.722;9.362;2023-09-19T08:16:12;2.67;;;1.80;;
46589;SDS011;32313;48.722;9.362;2023-09-19T08:18:40;2.17;;;1.67;;
46589;SDS011;32313;48.722;9.362;2023-09-19T08:21:06;3.83;;;1.60;;
46589;SDS011;32313;48.722;9.362;2023-09-19T08:23:36;3.17;;;2.10;;
46589;SDS011;32313;48.722;9.362;2023-09-19T08:26:03;2.73;;;1.80;;
46589;SDS011;32313;48.722;9.362;2023-09-19T08:28:32;1.73;;;1.63;;
46589;SDS011;32313;48.722;9.362;2023-09-19T08:31:02;2.10;;;1.50;;
46589;SDS011;32313;48.722;9.362;2023-09-19T08:33:31;2.97;;;1.83;;
46589;SDS011;32313;48.722;9.362;2023-09-19T08:35:57;2.50;;;1.53;;
46589;SDS011;32313;48.722;9.362;2023-09-19T08:38:23;5.33;;;1.77;;
46589;SDS011;32313;48.722;9.362;2023-09-19T08:40:48;3.20;;;1.70;;
46589;SDS011;32313;48.722;9.362;2023-09-19T08:43:15;1.83;;;1.40;;
46589;SDS011;32313;48.722;9.362;2023-09-19T08:45:41;3.00;;;1.60;;
46589;SDS011;32313;48.722;9.362;2023-09-19T08:48:22;1.40;;;1.30;;
46589;SDS011;32313;48.722;9.362;2023-09-19T08:51:03;1.70;;;1.47;;
46589;SDS011;32313;48.722;9.362;2023-09-19T08:56:14;2.07;;;1.80;;
46589;SDS011;32313;48.722;9.362;2023-09-19T08:58:44;1.83;;;1.73;;
46589;SDS011;32313;48.722;9.362;2023-09-19T09:01:16;1.77;;;1.63;;
46589;SDS011;32313;48.722;9.362;2023-09-19T09:03:47;2.00;;;1.80;;
46589;SDS011;32313;48.722;9.362;2023-09-19T09:06:14;2.80;;;1.80;;
46589;SDS011;32313;48.722;9.362;2023-09-19T09:08:41;2.67;;;1.70;;
46589;SDS011;32313;48.722;9.362;2023-09-19T09:11:08;1.77;;;1.63;;
46589;SDS011;32313;48.722;9.362;2023-09-19T09:13:35;2.20;;;2.00;;
46589;SDS011;32313;48.722;9.362;2023-09-19T09:16:02;2.60;;;2.07;;
46589;SDS011;32313;48.722;9.362;2023-09-19T09:18:28;3.30;;;2.13;;
46589;SDS011;32313;48.722;9.362;2023-09-19T09:20:57;1.90;;;1.70;;
46589;SDS011;32313;48.722;9.362;2023-09-19T09:23:23;2.00;;;1.80;;
46589;SDS011;32313;48.722;9.362;2023-09-19T09:25:54;2.97;;;1.80;;
46589;SDS011;32313;48.722;9.362;2023-09-19T09:28:28;2.43;;;1.80;;
46589;SDS011;32313;48.722;9.362;2023-09-19T09:30:56;3.33;;;1.70;;
46589;SDS011;32313;48.722;9.362;2023-09-19T09:33:33;3.40;;;1.60;;
46589;SDS011;32313;48.722;9.362;2023-09-19T09:36:01;2.23;;;1.90;;
46589;SDS011;32313;48.722;9.362;2023-09-19T09:38:44;3.03;;;1.80;;
46589;SDS011;32313;48.722;9.362;2023-09-19T09:41:13;3.13;;;1.83;;
46589;SDS011;32313;48.722;9.362;2023-09-19T09:43:52;2.47;;;1.80;;
46589;SDS011;32313;48.722;9.362;2023-09-19T09:46:18;2.07;;;1.80;;
46589;SDS011;32313;48.722;9.362;2023-09-19T09:51:39;1.67;;;1.57;;
46589;SDS011;32313;48.722;9.362;2023-09-19T09:54:14;2.10;;;1.77;;
46589;SDS011;32313;48.722;9.362;2023-09-19T09:56:55;2.10;;;1.90;;
46589;SDS011;32313;48.722;9.362;2023-09-19T10:00:09;2.70;;;1.90;;
46589;SDS011;32313;48.722;9.362;2023-09-19T10:02:39;9.47;;;2.97;;
46589;SDS011;32313;48.722;9.362;2023-09-19T10:05:11;8.73;;;2.53;;
46589;SDS011;32313;48.722;9.362;2023-09-19T10:07:53;17.30;;;3.17;;
46589;SDS011;32313;48.722;9.362;2023-09-19T10:10:32;2.87;;;2.00;;
46589;SDS011;32313;48.722;9.362;2023-09-19T10:13:05;3.80;;;2.27;;
46589;SDS011;32313;48.722;9.362;2023-09-19T10:15:33;3.53;;;1.97;;
46589;SDS011;32313;48.722;9.362;2023-09-19T10:18:01;4.33;;;2.20;;
46589;SDS011;32313;48.722;9.362;2023-09-19T10:20:29;3.40;;;2.40;;
46589;SDS011;32313;48.722;9.362;2023-09-19T10:23:01;2.73;;;1.80;;
46589;SDS011;32313;48.722;9.362;2023-09-19T10:25:34;2.73;;;2.30;;
46589;SDS011;32313;48.722;9.362;2023-09-19T10:28:09;3.33;;;2.20;;
46589;SDS011;32313;48.722;9.362;2023-09-19T10:30:50;3.63;;;2.70;;
46589;SDS011;32313;48.722;9.362;2023-09-19T10:33:17;3.77;;;2.10;;
46589;SDS011;32313;48.722;9.362;2023-09-19T10:35:54;2.10;;;1.90;;
46589;SDS011;32313;48.722;9.362;2023-09-19T10:38:25;2.73;;;1.70;;
46589;SDS011;32313;48.722;9.362;2023-09-19T10:40:54;2.90;;;2.00;;
46589;SDS011;32313;48.722;9.362;2023-09-19T10:43:25;2.97;;;1.80;;
46589;SDS011;32313;48.722;9.362;2023-09-19T10:45:54;2.90;;;1.70;;
46589;SDS011;32313;48.722;9.362;2023-09-19T10:48:26;3.07;;;1.70;;
46589;SDS011;32313;48.722;9.362;2023-09-19T10:53:29;3.03;;;1.93;;
46589;SDS011;32313;48.722;9.362;2023-09-19T10:56:07;3.47;;;2.00;;
46589;SDS011;32313;48.722;9.362;2023-09-19T10:58:39;2.90;;;1.80;;
46589;SDS011;32313;48.722;9.362;2023-09-19T11:01:09;3.47;;;1.47;;
46589;SDS011;32313;48.722;9.362;2023-09-19T11:03:43;3.30;;;1.60;;
46589;SDS011;32313;48.722;9.362;2023-09-19T11:06:16;2.17;;;1.80;;
46589;SDS011;32313;48.722;9.362;2023-09-19T11:09:03;2.00;;;1.70;;
46589;SDS011;32313;48.722;9.362;2023-09-19T11:14:28;1.83;;;1.73;;
46589;SDS011;32313;48.722;9.362;2023-09-19T11:30:38;2.23;;;1.70;;
46589;SDS011;32313;48.722;9.362;2023-09-19T11:33:18;2.60;;;1.53;;
46589;SDS011;32313;48.722;9.362;2023-09-19T11:49:25;2.33;;;1.40;;
46589;SDS011;32313;48.722;9.362;2023-09-19T11:51:57;2.80;;;1.60;;
46589;SDS011;32313;48.722;9.362;2023-09-19T11:54:26;2.90;;;1.30;;
46589;SDS011;32313;48.722;9.362;2023-09-19T11:56:57;1.87;;;1.17;;
46589;SDS011;32313;48.722;9.362;2023-09-19T11:59:24;1.83;;;1.30;;
46589;SDS011;32313;48.722;9.362;2023-09-19T12:01:55;1.27;;;1.17;;
46589;SDS011;32313;48.722;9.362;2023-09-19T12:07:07;3.33;;;1.30;;
46589;SDS011;32313;48.722;9.362;2023-09-19T12:09:44;2.20;;;1.50;;
46589;SDS011;32313;48.722;9.362;2023-09-19T12:12:46;5.03;;;1.50;;
46589;SDS011;32313;48.722;9.362;2023-09-19T12:15:06;3.00;;;1.67;;
46589;SDS011;32313;48.722;9.362;2023-09-19T12:17:36;4.57;;;1.57;;
46589;SDS011;32313;48.722;9.362;2023-09-19T12:20:02;2.27;;;1.63;;
46589;SDS011;32313;48.722;9.362;2023-09-19T12:22:44;3.03;;;1.70;;
46589;SDS011;32313;48.722;9.362;2023-09-19T12:25:11;2.65;;;1.65;;
46589;SDS011;32313;48.722;9.362;2023-09-19T12:27:45;2.20;;;1.50;;
46589;SDS011;32313;48.722;9.362;2023-09-19T12:30:18;1.80;;;1.30;;
46589;SDS011;32313;48.722;9.362;2023-09-19T12:32:46;2.03;;;1.45;;
46589;SDS011;32313;48.722;9.362;2023-09-19T12:35:32;2.50;;;1.60;;
46589;SDS011;32313;48.722;9.362;2023-09-19T12:38:00;1.70;;;1.45;;
46589;SDS011;32313;48.722;9.362;2023-09-19T12:40:28;2.63;;;1.70;;
46589;SDS011;32313;48.722;9.362;2023-09-19T12:42:57;2.95;;;1.20;;
46589;SDS011;32313;48.722;9.362;2023-09-19T12:45:24;2.92;;;1.40;;
46589;SDS011;32313;48.722;9.362;2023-09-19T12:48:36;2.78;;;1.52;;
46589;SDS011;32313;48.722;9.362;2023-09-19T12:51:01;1.95;;;1.40;;
46589;SDS011;32313;48.722;9.362;2023-09-19T12:53:34;1.83;;;1.40;;
46589;SDS011;32313;48.722;9.362;2023-09-19T12:56:11;5.07;;;1.73;;
46589;SDS011;32313;48.722;9.362;2023-09-19T12:58:58;8.52;;;2.50;;
46589;SDS011;32313;48.722;9.362;2023-09-19T13:01:28;2.95;;;1.52;;
46589;SDS011;32313;48.722;9.362;2023-09-19T13:04:13;1.50;;;1.10;;
46589;SDS011;32313;48.722;9.362;2023-09-19T13:06:40;5.15;;;1.63;;
46589;SDS011;32313;48.722;9.362;2023-09-19T13:09:09;2.35;;;1.50;;
46589;SDS011;32313;48.722;9.362;2023-09-19T13:11:36;2.17;;;1.40;;
46589;SDS011;32313;48.722;9.362;2023-09-19T13:14:30;2.53;;;1.73;;
46589;SDS011;32313;48.722;9.362;2023-09-19T13:25:03;3.10;;;1.58;;
46589;SDS011;32313;48.722;9.362;2023-09-19T13:27:33;5.45;;;1.63;;
46589;SDS011;32313;48.722;9.362;2023-09-19T13:29:59;1.73;;;1.30;;
46589;SDS011;32313;48.722;9.362;2023-09-19T13:32:25;1.92;;;1.17;;
46589;SDS011;32313;48.722;9.362;2023-09-19T13:34:51;1.50;;;1.40;;
46589;SDS011;32313;48.722;9.362;2023-09-19T13:37:17;3.65;;;1.60;;
46589;SDS011;32313;48.722;9.362;2023-09-19T13:39:43;5.57;;;1.70;;
46589;SDS011;32313;48.722;9.362;2023-09-19T13:42:12;1.73;;;1.30;;
46589;SDS011;32313;48.722;9.362;2023-09-19T13:44:39;1.70;;;1.50;;
46589;SDS011;32313;48.722;9.362;2023-09-19T13:47:06;3.22;;;1.60;;
46589;SDS011;32313;48.722;9.362;2023-09-19T13:49:35;2.97;;;1.50;;
46589;SDS011;32313;48.722;9.362;2023-09-19T13:52:03;2.13;;;1.60;;
46589;SDS011;32313;48.722;9.362;2023-09-19T13:54:30;3.85;;;1.58;;
46589;SDS011;32313;48.722;9.362;2023-09-19T13:56:55;1.63;;;1.23;;
46589;SDS011;32313;48.722;9.362;2023-09-19T13:59:21;1.88;;;1.60;;
46589;SDS011;32313;48.722;9.362;2023-09-19T14:01:51;1.83;;;1.50;;
46589;SDS011;32313;48.722;9.362;2023-09-19T14:04:19;2.47;;;1.40;;
46589;SDS011;32313;48.722;9.362;2023-09-19T14:06:52;2.15;;;1.40;;
46589;SDS011;32313;48.722;9.362;2023-09-19T14:09:18;2.28;;;1.40;;
46589;SDS011;32313;48.722;9.362;2023-09-19T14:11:44;2.55;;;1.50;;
46589;SDS011;32313;48.722;9.362;2023-09-19T14:14:12;1.90;;;1.27;;
46589;SDS011;32313;48.722;9.362;2023-09-19T14:16:38;2.50;;;1.50;;
46589;SDS011;32313;48.722;9.362;2023-09-19T14:19:07;2.05;;;1.20;;
46589;SDS011;32313;48.722;9.362;2023-09-19T14:21:33;1.52;;;1.40;;
46589;SDS011;32313;48.722;9.362;2023-09-19T14:23:59;3.58;;;1.50;;
46589;SDS011;32313;48.722;9.362;2023-09-19T14:26:24;5.88;;;2.35;;
46589;SDS011;32313;48.722;9.362;2023-09-19T14:28:50;3.13;;;1.40;;
46589;SDS011;32313;48.722;9.362;2023-09-19T14:31:16;3.25;;;1.30;;
46589;SDS011;32313;48.722;9.362;2023-09-19T14:33:42;3.22;;;1.52;;
46589;SDS011;32313;48.722;9.362;2023-09-19T14:36:09;2.50;;;1.60;;
46589;SDS011;32313;48.722;9.362;2023-09-19T14:38:36;3.05;;;1.40;;
46589;SDS011;32313;48.722;9.362;2023-09-19T14:41:03;8.10;;;2.72;;
46589;SDS011;32313;48.722;9.362;2023-09-19T14:43:30;3.95;;;1.70;;
46589;SDS011;32313;48.722;9.362;2023-09-19T14:45:57;2.97;;;1.40;;
46589;SDS011;32313;48.722;9.362;2023-09-19T14:48:28;4.13;;;1.50;;
46589;SDS011;32313;48.722;9.362;2023-09-19T14:50:54;2.80;;;1.50;;
46589;SDS011;32313;48.722;9.362;2023-09-19T14:53:20;4.72;;;1.90;;
46589;SDS011;32313;48.722;9.362;2023-09-19T14:55:49;2.28;;;1.30;;
46589;SDS011;32313;48.722;9.362;2023-09-19T14:58:17;4.50;;;1.83;;
46589;SDS011;32313;48.722;9.362;2023-09-19T15:00:43;5.18;;;2.00;;
46589;SDS011;32313;48.722;9.362;2023-09-19T15:03:10;7.10;;;2.47;;
46589;SDS011;32313;48.722;9.362;2023-09-19T15:05:36;6.65;;;1.75;;
46589;SDS011;32313;48.722;9.362;2023-09-19T15:08:02;3.80;;;1.60;;
46589;SDS011;32313;48.722;9.362;2023-09-19T15:10:28;5.63;;;1.80;;
46589;SDS011;32313;48.722;9.362;2023-09-19T15:12:54;1.42;;;1.33;;
46589;SDS011;32313;48.722;9.362;2023-09-19T15:15:20;2.17;;;1.50;;
46589;SDS011;32313;48.722;9.362;2023-09-19T15:17:46;2.53;;;1.35;;
46589;SDS011;32313;48.722;9.362;2023-09-19T15:20:12;2.88;;;1.58;;
46589;SDS011;32313;48.722;9.362;2023-09-19T15:22:39;1.38;;;1.20;;
46589;SDS011;32313;48.722;9.362;2023-09-19T15:25:05;5.03;;;1.63;;
46589;SDS011;32313;48.722;9.362;2023-09-19T15:27:31;2.27;;;1.40;;
46589;SDS011;32313;48.722;9.362;2023-09-19T15:29:59;2.73;;;1.60;;
46589;SDS011;32313;48.722;9.362;2023-09-19T15:32:25;2.13;;;1.60;;
46589;SDS011;32313;48.722;9.362;2023-09-19T15:34:51;1.63;;;1.40;;
46589;SDS011;32313;48.722;9.362;2023-09-19T15:37:17;1.73;;;1.30;;
46589;SDS011;32313;48.722;9.362;2023-09-19T15:39:44;11.00;;;2.40;;
46589;SDS011;32313;48.722;9.362;2023-09-19T15:42:11;3.83;;;1.80;;
46589;SDS011;32313;48.722;9.362;2023-09-19T15:44:37;2.47;;;1.50;;
46589;SDS011;32313;48.722;9.362;2023-09-19T15:47:03;1.50;;;1.40;;
46589;SDS011;32313;48.722;9.362;2023-09-19T15:49:29;3.70;;;1.47;;
46589;SDS011;32313;48.722;9.362;2023-09-19T15:51:55;2.43;;;1.50;;
46589;SDS011;32313;48.722;9.362;2023-09-19T15:54:20;3.33;;;1.60;;
46589;SDS011;32313;48.722;9.362;2023-09-19T15:56:47;1.90;;;1.50;;
46589;SDS011;32313;48.722;9.362;2023-09-19T15:59:13;3.73;;;1.57;;
46589;SDS011;32313;48.722;9.362;2023-09-19T16:01:42;2.80;;;1.30;;
46589;SDS011;32313;48.722;9.362;2023-09-19T16:04:09;1.70;;;1.40;;